Latest Weather Observations for Richmond

IDN60901

Issued at 9:51 pm EST Sunday 1 May 2016 (issued every 10 minutes, with the page automatically refreshed every 10 minutes)

About weather observations | Map of Sydney area stations | Latest observations for Sydney area | Other Formats
Station Details ID: 067105 Name: RICHMOND RAAF Lat: -33.60 Lon: 150.78 Height: 19.0 m
Data from the previous 72 hours. | See also: Recent months at Richmond
Date/Time
EST
Tmp

°C
App
Tmp
°C
Dew
Point
°C
Rel
Hum
%
Delta-T

°C
Wind Press
QNH
hPa
Press
MSL
hPa
Rain
since
9 am
mm
Dir
 
Spd
km/h
Gust
km/h
Spd
kts
Gust
kts
01/09:30pm 19.8 16.5 9.4 51 5.5 WSW 17 24 9 13 1015.1 1015.1 0.2
01/09:00pm 21.1 17.4 9.4 47 6.2 WSW 19 26 10 14 1014.5 1014.5 0.2
01/08:30pm 21.4 17.2 9.6 47 6.3 W 22 37 12 20 1013.9 1013.9 0.2
01/08:00pm 20.4 17.1 9.6 50 5.8 WSW 17 19 9 10 1013.2 1013.2 0.2
01/07:30pm 21.4 18.3 8.7 44 6.7 WNW 15 20 8 11 1012.6 1012.6 0.2
01/07:00pm 22.0 18.4 8.5 42 7.1 WNW 17 28 9 15 1012.2 1012.2 0.2
01/06:30pm 22.3 19.0 8.1 40 7.5 WNW 15 19 8 10 1011.9 1011.9 0.2
01/06:00pm 23.3 19.1 7.4 36 8.3 WNW 19 24 10 13 1011.5 1011.5 0.2
01/05:30pm 23.4 19.8 8.3 38 8.0 WNW 17 22 9 12 1011.1 1011.1 0.2
01/05:00pm 25.7 21.8 9.5 36 8.9 WNW 20 28 11 15 1010.7 1010.7 0.2
01/04:30pm 27.0 22.9 10.2 35 9.4 NW 22 30 12 16 1010.3 1010.3 0.2
01/04:00pm 27.3 24.4 12.9 41 8.4 NW 20 32 11 17 1010.1 1010.1 0.2
01/03:30pm 28.1 24.8 12.8 38 9.0 NW 22 35 12 19 1009.8 1009.8 0.2
01/03:00pm 27.9 24.0 13.4 40 8.6 NW 26 35 14 19 1009.8 1009.8 0.2
01/02:30pm 27.3 24.0 12.9 41 8.4 NW 22 33 12 18 1009.5 1009.5 0.2
01/02:00pm 27.1 24.1 13.8 44 7.9 NNW 22 33 12 18 1010.0 1010.0 0.0
01/01:30pm 25.8 22.7 16.6 56 5.7 N 28 39 15 21 1009.9 1009.9 0.0
01/01:00pm 25.9 23.2 17.5 59 5.3 N 28 35 15 19 1010.4 1010.4 0.0
01/12:30pm 24.6 21.9 17.6 65 4.4 N 28 37 15 20 1010.9 1010.9 0.0
01/12:00pm 22.3 20.3 17.4 74 3.0 N 24 33 13 18 1011.8 1011.8 0.0
01/11:30am 21.9 20.9 17.9 78 2.5 N 20 30 11 16 1012.3 1012.3 0.0
01/11:00am 21.5 20.4 17.7 79 2.3 N 20 26 11 14 1013.0 1013.0 0.0
01/10:30am 20.8 21.3 18.4 86 1.5 N 13 17 7 9 1013.4 1013.4 0.0
01/10:00am 20.2 19.8 18.0 87 1.4 N 17 22 9 12 1013.4 1013.4 0.0
01/09:30am 19.7 19.3 18.0 90 1.0 N 17 26 9 14 1013.5 1013.5 0.0
01/09:00am 19.1 18.9 18.4 96 0.4 NE 17 19 9 10 1013.6 1013.6 1.4
01/08:30am 18.6 19.3 17.9 96 0.4 NE 11 13 6 7 1014.4 1014.4 1.4
01/08:00am 18.3 17.9 18.0 98 0.2 NNE 17 24 9 13 1013.4 1013.4 1.4
01/07:30am 17.6 18.4 17.4 99 0.1 NE 9 13 5 7 1014.3 1014.3 1.2
01/07:00am 17.2 17.1 17.0 99 0.1 NNE 13 17 7 9 1014.3 1014.3 1.2
01/06:30am 16.1 15.6 15.9 99 0.1 NE 13 19 7 10 1014.1 1014.1 1.0
01/06:00am 15.4 14.6 15.2 99 0.1 NE 13 17 7 9 1013.5 1013.5 1.0
01/05:30am 15.2 15.1 15.0 99 0.1 SW 9 13 5 7 1013.3 1013.3 0.4
01/05:00am 14.6 16.0 14.4 99 0.1 CALM 0 0 0 0 1012.8 1012.8 0.4
01/04:30am 14.0 14.8 13.8 99 0.1 SSW 2 7 1 4 1012.6 1012.6 0.4
01/04:13am 13.7 14.4 13.5 99 0.1 SSE 2 9 1 5 1012.7 1012.7 0.4
01/04:00am 14.2 14.1 14.0 99 0.1 SSW 7 11 4 6 1012.9 1012.9 0.4
01/03:58am 14.1 14.0 13.9 99 0.1 SSW 7 11 4 6 1012.9 1012.9 0.4
01/03:39am 14.0 15.2 13.8 99 0.1 CALM 0 7 0 4 1012.8 1012.8 0.4
01/03:30am 13.5 14.5 13.2 98 0.2 CALM 0 0 0 0 1012.9 1012.9 0.4
01/03:21am 13.4 14.0 13.1 98 0.2 WNW 2 9 1 5 1013.0 1013.0 0.4
01/03:06am 13.9 15.1 13.7 99 0.1 CALM 0 0 0 0 1013.2 1013.2 0.4
01/03:00am 14.5 15.9 14.3 99 0.1 CALM 0 0 0 0 1013.2 1013.2 0.4
01/02:48am 13.8 14.9 13.6 99 0.1 CALM 0 0 0 0 1013.4 1013.4 0.4
01/02:30am 14.1 15.3 13.9 99 0.1 CALM 0 0 0 0 1013.3 1013.3 0.4
01/02:00am 14.1 15.3 13.9 99 0.1 CALM 0 0 0 0 1013.8 1013.8 0.4
01/01:44am 13.4 14.4 13.1 98 0.2 CALM 0 0 0 0 1014.0 1014.0 0.4
01/01:42am 13.3 14.2 13.0 98 0.2 CALM 0 0 0 0 1014.0 1014.0 0.4
01/01:31am 13.9 15.0 13.6 98 0.2 CALM 0 0 0 0 1014.0 1014.0 0.4
01/01:30am 13.9 15.0 13.6 98 0.2 CALM 0 0 0 0 1014.0 1014.0 0.4
01/01:13am 13.9 14.7 13.6 98 0.2 N 2 6 1 3 1014.3 1014.3 0.4
01/01:00am 14.2 14.3 14.0 99 0.1 N 6 7 3 4 1014.5 1014.5 0.4
01/12:54am 14.8 15.1 14.6 99 0.1 N 6 7 3 4 1014.4 1014.4 0.4
01/12:53am 14.6 14.9 14.4 99 0.1 N 6 7 3 4 1014.4 1014.4 0.4
01/12:36am 14.2 15.4 13.9 98 0.2 CALM 0 6 0 3 1014.7 1014.7 0.4
01/12:30am 14.3 14.8 14.0 98 0.2 NNW 4 7 2 4 1015.0 1015.0 0.4
01/12:00am 15.9 17.8 15.7 99 0.1 CALM 0 0 0 0 1015.0 1015.0 0.4
 
Date/Time
EST
Tmp

°C
App
Tmp
°C
Dew
Point
°C
Rel
Hum
%
Delta-T

°C
Wind Press
QNH
hPa
Press
MSL
hPa
Rain
since
9 am
mm
Dir
 
Spd
km/h
Gust
km/h
Spd
kts
Gust
kts
30/11:30pm 15.5 16.1 15.2 98 0.2 E 6 11 3 6 1015.4 1015.4 0.4
30/11:00pm 16.3 16.6 16.1 99 0.1 NW 9 11 5 6 1016.2 1016.2 0.4
30/10:51pm 15.7 17.1 15.4 98 0.2 NNW 2 9 1 5 1016.1 1016.1 0.4
30/10:30pm 16.5 18.6 16.3 99 0.1 CALM 0 0 0 0 1016.2 1016.2 0.4
30/10:00pm 16.3 17.0 16.1 99 0.1 N 7 9 4 5 1016.4 1016.4 0.4
30/09:49pm 16.9 17.5 16.7 99 0.1 N 9 9 5 5 1016.4 1016.4 0.4
30/09:41pm 16.9 18.4 16.7 99 0.1 N 4 9 2 5 1016.4 1016.4 0.4
30/09:30pm 17.5 20.0 17.3 99 0.1 CALM 0 0 0 0 1016.3 1016.3 0.4
30/09:22pm 16.9 19.1 16.6 98 0.2 CALM 0 0 0 0 1016.4 1016.4 0.4
30/09:01pm 16.5 18.3 15.5 94 0.6 CALM 0 0 0 0 1016.8 1016.8 0.4
30/09:00pm 16.7 18.7 15.9 95 0.5 CALM 0 0 0 0 1016.8 1016.8 0.4
30/08:42pm 17.1 18.5 16.3 95 0.5 N 4 7 2 4 1016.9 1016.9 0.4
30/08:30pm 18.0 19.4 17.7 98 0.2 N 7 9 4 5 1016.8 1016.8 0.4
30/08:00pm 17.6 18.7 17.1 97 0.3 N 7 9 4 5 1016.7 1016.7 0.4
30/07:30pm 17.9 19.1 16.8 93 0.7 NW 6 11 3 6 1016.3 1016.3 0.4
30/07:00pm 18.9 21.5 17.6 92 0.8 CALM 0 0 0 0 1016.2 1016.2 0.4
30/06:30pm 19.4 21.4 17.0 86 1.5 NNE 2 7 1 4 1016.1 1016.1 0.4
30/06:00pm 20.6 21.2 17.8 84 1.7 NE 11 13 6 7 1016.0 1016.0 0.4
30/05:30pm 21.5 22.8 17.1 76 2.7 SE 6 7 3 4 1015.8 1015.8 0.4
30/05:00pm 23.0 24.4 17.7 72 3.3 SSE 7 7 4 4 1015.7 1015.7 0.4
30/04:30pm 23.9 26.7 17.9 69 3.8 CALM 0 0 0 0 1015.6 1015.6 0.4
30/04:00pm 23.6 24.6 17.8 70 3.6 NE 9 13 5 7 1015.5 1015.5 0.4
30/03:30pm 25.1 25.4 17.8 64 4.6 NE 13 15 7 8 1015.4 1015.4 0.2
30/03:00pm 25.1 25.7 17.8 64 4.6 NNE 11 17 6 9 1015.5 1015.5 0.2
30/02:30pm 24.3 25.8 17.5 66 4.2 WNW 6 9 3 5 1015.6 1015.6 0.2
30/02:00pm 23.8 24.2 17.3 67 4.0 NNW 11 17 6 9 1015.8 1015.8 0.2
30/01:30pm 23.4 23.3 17.8 71 3.5 N 15 19 8 10 1015.8 1015.8 0.2
30/01:00pm 22.9 23.1 17.6 72 3.3 N 13 19 7 10 1016.0 1016.0 0.2
30/12:30pm 22.3 21.8 17.7 75 2.9 N 17 22 9 12 1016.2 1016.2 0.2
30/12:00pm 22.1 21.1 17.9 77 2.6 N 20 26 11 14 1016.8 1016.8 0.2
30/11:30am 21.6 20.4 17.6 78 2.5 N 20 28 11 15 1017.1 1017.1 0.2
30/11:00am 21.0 20.7 18.2 84 1.7 NNE 17 24 9 13 1017.6 1017.6 0.2
30/10:30am 20.0 20.6 18.5 91 0.9 NE 13 20 7 11 1018.1 1018.1 0.2
30/10:00am 19.1 20.5 17.9 93 0.7 NNE 7 9 4 5 1018.4 1018.4 0.2
30/09:30am 18.5 19.3 17.3 93 0.7 NE 9 11 5 6 1018.5 1018.5 0.2
30/09:00am 18.4 19.8 17.4 94 0.6 NE 6 9 3 5 1018.7 1018.7 0.6
30/08:30am 17.7 18.2 17.4 98 0.2 NNE 11 13 6 7 1018.7 1018.7 0.6
30/08:00am 17.0 17.2 16.7 98 0.2 NNE 11 13 6 7 1018.9 1018.9 0.6
30/07:30am 16.7 17.5 16.4 98 0.2 NE 7 9 4 5 1019.0 1019.0 0.6
30/07:00am 16.6 17.0 16.3 98 0.2 NE 9 13 5 7 1018.9 1018.9 0.0
30/06:30am 16.3 17.9 16.0 98 0.2 NE 2 9 1 5 1018.6 1018.6 0.0
30/06:00am 16.1 18.0 15.8 98 0.2 CALM 0 0 0 0 1018.4 1018.4 0.0
30/05:30am 16.3 18.2 15.7 96 0.4 CALM 0 0 0 0 1018.1 1018.1 0.0
30/05:00am 16.3 17.0 15.7 96 0.4 SW 6 7 3 4 1018.5 1018.5 0.0
30/04:30am 16.4 18.2 15.6 95 0.5 CALM 0 7 0 4 1018.1 1018.1 0.0
30/04:00am 16.4 18.2 15.6 95 0.5 CALM 0 0 0 0 1018.0 1018.0 0.0
30/03:30am 16.2 16.6 15.4 95 0.5 WNW 7 9 4 5 1017.8 1017.8 0.0
30/03:00am 16.2 16.9 15.7 97 0.3 NW 6 7 3 4 1017.6 1017.6 0.0
30/02:30am 16.0 17.8 15.4 96 0.3 CALM 0 6 0 3 1017.7 1017.7 0.0
30/02:00am 16.2 17.3 15.6 96 0.3 WSW 4 6 2 3 1017.7 1017.7 0.0
30/01:30am 16.3 17.4 15.5 95 0.5 SSE 4 9 2 5 1017.9 1017.9 0.0
30/01:00am 16.1 17.8 15.1 94 0.6 CALM 0 0 0 0 1018.1 1018.1 0.0
30/12:30am 16.5 17.2 15.5 94 0.6 S 6 7 3 4 1018.1 1018.1 0.0
30/12:00am 16.6 17.3 15.5 93 0.6 SW 6 9 3 5 1018.2 1018.2 0.0
 
Date/Time
EST
Tmp

°C
App
Tmp
°C
Dew
Point
°C
Rel
Hum
%
Delta-T

°C
Wind Press
QNH
hPa
Press
MSL
hPa
Rain
since
9 am
mm
Dir
 
Spd
km/h
Gust
km/h
Spd
kts
Gust
kts
29/11:30pm 16.9 18.2 16.1 95 0.5 N 4 9 2 5 1018.4 1018.4 0.0
29/11:00pm 16.5 17.7 15.9 96 0.4 WNW 4 7 2 4 1018.8 1018.8 0.0
29/10:30pm 16.3 18.1 15.5 95 0.5 CALM 0 0 0 0 1018.8 1018.8 0.0
29/10:00pm 16.2 16.8 15.4 95 0.5 NW 6 6 3 3 1019.3 1019.3 0.0
29/09:30pm 16.6 17.3 15.6 94 0.6 SSW 6 7 3 4 1019.1 1019.1 0.0
29/09:00pm 16.7 17.5 14.9 89 1.0 SE 4 9 2 5 1019.1 1019.1 0.0
29/08:30pm 17.2 17.7 15.5 90 1.0 NNW 7 9 4 5 1018.8 1018.8 0.0
29/08:00pm 17.0 17.2 14.3 84 1.5 S 6 7 3 4 1018.8 1018.8 0.0
29/07:30pm 17.6 18.8 14.9 84 1.6 SSW 2 7 1 4 1018.6 1018.6 0.0
29/07:00pm 19.9 21.3 15.3 75 2.7 NNW 2 6 1 3 1018.7 1018.7 0.0
29/06:30pm 19.8 20.4 15.2 75 2.7 NE 6 7 3 4 1018.3 1018.3 0.0
29/06:00pm 21.0 22.7 15.3 70 3.4 CALM 0 0 0 0 1018.3 1018.3 0.0
29/05:30pm 21.7 23.4 15.3 67 3.8 CALM 0 0 0 0 1018.3 1018.3 0.0
29/05:00pm 22.8 23.3 15.1 62 4.6 NNE 6 9 3 5 1018.1 1018.1 0.0
29/04:30pm 23.8 23.7 15.0 57 5.3 NE 9 11 5 6 1017.7 1017.7 0.0
29/04:00pm 24.4 23.6 15.1 56 5.6 NNE 13 15 7 8 1017.6 1017.6 0.0
29/03:30pm 24.9 23.7 15.0 54 5.9 NE 15 20 8 11 1017.8 1017.8 0.0
29/03:00pm 25.5 23.9 14.9 52 6.4 NE 17 22 9 12 1017.7 1017.7 0.0
29/02:30pm 25.4 24.9 14.8 52 6.3 ENE 11 15 6 8 1018.1 1018.1 0.0
29/02:00pm 25.7 25.8 14.5 50 6.7 NE 7 13 4 7 1018.2 1018.2 0.0
29/01:30pm 23.8 24.1 14.5 56 5.5 ENE 6 9 3 5 1018.5 1018.5 0.0
29/01:00pm 23.6 23.3 14.3 56 5.5 NE 9 15 5 8 1018.9 1018.9 0.0
29/12:30pm 24.5 24.8 14.6 54 5.9 NE 6 13 3 7 1019.7 1019.7 0.0
29/12:00pm 21.8 22.8 14.2 62 4.4 W 2 7 1 4 1020.6 1020.6 0.0
29/11:30am 21.2 22.5 14.1 64 4.1 CALM 0 7 0 4 1021.2 1021.2 0.0
29/11:00am 20.3 21.2 14.0 67 3.6 NW 2 7 1 4 1021.6 1021.6 0.0
29/10:30am 20.2 20.6 14.8 71 3.2 ENE 6 9 3 5 1021.9 1021.9 0.0
29/10:00am 19.6 19.9 15.0 75 2.7 E 7 11 4 6 1022.3 1022.3 0.0
29/09:30am 18.5 18.7 14.6 78 2.3 NNE 7 13 4 7 1022.8 1022.8 0.0
29/09:00am 16.9 18.0 14.7 87 1.3 SW 2 6 1 3 1023.0 1023.0 0.0
29/08:30am 15.2 16.7 14.6 96 0.3 CALM 0 2 0 1 1023.1 1023.1 0.0
29/08:00am 13.6 14.7 13.4 99 0.1 CALM 0 6 0 3 1023.1 1023.1 0.0
29/07:52am 12.8 13.2 12.6 99 0.1 WSW 2 6 1 3 1023.2 1023.2 0.0
29/07:49am 12.7 13.1 12.5 99 0.1 NW 2 6 1 3 1023.2 1023.2 0.0
29/07:30am 11.7 12.1 11.4 98 0.2 CALM 0 0 0 0 1023.1 1023.1 0.0
29/07:00am 11.2 11.5 10.9 98 0.2 CALM 0 6 0 3 1022.7 1022.7 0.0
29/06:30am 10.6 10.7 10.3 98 0.2 CALM 0 0 0 0 1022.5 1022.5 0.0
29/06:02am 10.2 9.1 9.9 98 0.2 SE 6 7 3 4 1022.3 1022.3 0.0
29/06:00am 10.3 9.2 10.0 98 0.2 SE 6 7 3 4 1022.2 1022.2 0.0
29/05:30am 10.2 10.2 9.9 98 0.2 CALM 0 0 0 0 1022.1 1022.1 0.0
29/05:23am 10.2 10.2 9.9 98 0.2 CALM 0 0 0 0 1022.0 1022.0 0.0
29/05:00am 10.5 10.6 10.2 98 0.2 CALM 0 0 0 0 1022.0 1022.0 0.0
29/04:51am 10.5 10.6 10.2 98 0.2 CALM 0 0 0 0 1022.0 1022.0 0.0
29/04:30am 10.5 10.2 10.2 98 0.2 W 2 6 1 3 1022.1 1022.1 0.0
29/04:27am 10.6 10.7 10.3 98 0.2 CALM 0 6 0 3 1022.1 1022.1 0.0
29/04:00am 11.0 11.2 10.7 98 0.2 CALM 0 0 0 0 1022.1 1022.1 0.0
29/03:32am 11.8 12.3 11.5 98 0.2 CALM 0 0 0 0 1021.9 1021.9 0.0
29/03:30am 11.9 12.4 11.6 98 0.2 CALM 0 0 0 0 1021.8 1021.8 0.0
29/03:00am 12.2 12.8 11.9 98 0.2 CALM 0 0 0 0 1021.8 1021.8 0.0
29/02:30am 12.4 13.1 12.1 98 0.2 CALM 0 0 0 0 1022.1 1022.1 0.0
29/02:00am 12.6 13.3 12.3 98 0.2 CALM 0 0 0 0 1022.2 1022.2 0.0
29/01:30am 12.7 13.5 12.4 98 0.2 CALM 0 0 0 0 1022.4 1022.4 0.0
29/01:00am 13.2 13.0 12.9 98 0.2 W 6 7 3 4 1022.5 1022.5 0.0
29/12:30am 13.6 14.6 13.3 98 0.2 CALM 0 0 0 0 1022.7 1022.7 0.0
29/12:00am 13.5 13.9 12.6 94 0.5 SSW 2 6 1 3 1022.8 1022.8 0.0
 
Date/Time
EST
Tmp

°C
App
Tmp
°C
Dew
Point
°C
Rel
Hum
%
Delta-T

°C
Wind Press
QNH
hPa
Press
MSL
hPa
Rain
since
9 am
mm
Dir
 
Spd
km/h
Gust
km/h
Spd
kts
Gust
kts
28/11:30pm 14.1 14.7 13.0 93 0.6 SE 2 9 1 5 1022.8 1022.8 0.0
28/11:00pm 14.9 16.1 13.9 94 0.6 CALM 0 0 0 0 1022.7 1022.7 0.0
28/10:30pm 15.7 17.2 14.7 94 0.6 CALM 0 0 0 0 1023.0 1023.0 0.0
28/10:00pm 15.5 17.1 14.9 96 0.3 CALM 0 0 0 0 1022.9 1022.9 0.0

Latest Capital City Observations: Canberra | Sydney | Melbourne | Brisbane | Adelaide | Perth | Hobart | Darwin

Other Formats:

Comma delimited format used in spreadsheet applications
http://www.bom.gov.au/fwo/IDN60901/IDN60901.95753.axf

JavaScript Object Notation format (JSON) in row-major order
http://www.bom.gov.au/fwo/IDN60901/IDN60901.95753.json